Time;durP1;ratioP1;P1;durP2;ratioP2;P2;SDS_P1;SDS_P2;PMS_P1;PMS_P2;Temp;Humidity;BMP_temperature;BMP_pressure;BME280_temperature;BME280_humidity;BME280_pressure;Samples;Min_cycle;Max_cycle;Signal;HPM_P1;HPM_P2
2023/09/04 00:00:21;;;;;;;2.70;2.60;;;21.10;99.90;;;21.41;73.23;102656.22;5043205;28;20045;-77
2023/09/04 00:02:50;;;;;;;2.47;2.38;;;21.10;99.90;;;21.38;73.29;102659.00;5037685;28;20045;-77
2023/09/04 00:05:20;;;;;;;2.50;2.40;;;21.10;99.90;;;21.41;73.38;102658.03;5048336;28;20056;-78
2023/09/04 00:07:48;;;;;;;2.67;2.58;;;21.00;99.90;;;21.37;73.55;102662.59;5038567;28;20049;-77
2023/09/04 00:10:18;;;;;;;2.50;2.40;;;21.00;99.90;;;21.35;73.59;102652.78;5041481;28;20086;-77
2023/09/04 00:12:46;;;;;;;2.55;2.45;;;21.00;99.90;;;21.36;73.48;102654.53;5047639;28;20556;-77
2023/09/04 00:15:15;;;;;;;2.40;2.30;;;21.00;99.90;;;21.25;73.42;102653.88;5035937;28;20087;-77
2023/09/04 00:17:43;;;;;;;2.30;2.20;;;21.00;99.90;;;21.21;73.56;102652.16;5044605;28;20073;-77
2023/09/04 00:20:13;;;;;;;2.65;2.55;;;20.90;99.90;;;21.22;73.60;102657.50;5044009;28;20041;-78
2023/09/04 00:22:42;;;;;;;2.70;2.60;;;20.80;99.90;;;20.36;73.46;102532.69;5036719;28;20053;-77
2023/09/04 00:25:10;;;;;;;3.03;2.92;;;20.90;99.90;;;21.18;73.47;102654.91;5035733;28;20033;-76
2023/09/04 00:27:40;;;;;;;2.35;2.25;;;20.80;99.90;;;21.00;73.67;102649.88;5042911;28;20060;-77
2023/09/04 00:30:10;;;;;;;2.97;2.87;;;20.70;99.90;;;20.90;73.83;102642.88;5047191;28;20061;-77
2023/09/04 00:32:38;;;;;;;3.65;3.35;;;20.60;99.90;;;20.70;74.41;102645.91;5047746;28;20330;-77
2023/09/04 00:35:08;;;;;;;2.88;2.78;;;20.40;99.90;;;20.57;74.95;102637.19;5036510;28;20472;-77
2023/09/04 00:37:37;;;;;;;2.67;2.58;;;20.30;99.90;;;20.33;75.65;102636.69;5042934;28;20053;-77
2023/09/04 00:40:06;;;;;;;2.40;2.30;;;20.10;99.90;;;20.36;76.19;102639.34;5045092;28;20073;-77
2023/09/04 00:42:35;;;;;;;2.75;2.65;;;20.00;99.90;;;20.35;76.14;102635.78;5034767;28;20140;-77
2023/09/04 00:45:11;;;;;;;3.40;3.30;;;20.00;99.90;;;20.03;76.46;102608.50;5046297;28;20057;-77
2023/09/04 00:47:42;;;;;;;2.45;2.35;;;20.00;99.90;;;20.06;77.16;102638.00;5042871;28;20072;-77
2023/09/04 00:50:16;;;;;;;2.53;2.42;;;19.80;99.90;;;20.01;77.61;102625.53;5037768;28;20402;-77
2023/09/04 00:52:45;;;;;;;3.35;3.20;;;19.70;99.90;;;19.99;77.68;102630.06;5048040;28;20120;-77
2023/09/04 00:55:13;;;;;;;3.20;3.10;;;19.70;99.90;;;20.05;77.47;102628.19;5040047;28;20119;-76
2023/09/04 00:57:44;;;;;;;2.50;2.40;;;19.80;99.90;;;20.16;77.67;102626.19;5039541;28;20475;-77
2023/09/04 01:00:19;;;;;;;2.58;2.47;;;19.80;99.90;;;20.27;77.43;102621.56;5048541;28;20051;-75
2023/09/04 01:02:47;;;;;;;2.40;2.30;;;19.90;99.90;;;20.37;77.14;102625.88;5030966;28;20047;-77
2023/09/04 01:05:17;;;;;;;2.60;2.50;;;20.00;99.90;;;20.31;76.85;102622.41;5041553;28;20080;-77
2023/09/04 01:07:48;;;;;;;2.80;2.70;;;20.00;99.90;;;20.39;76.73;102633.91;5037190;28;20057;-77
2023/09/04 01:10:17;;;;;;;2.70;2.60;;;20.10;99.90;;;20.42;77.04;102637.44;5035923;28;20099;-77
2023/09/04 01:12:53;;;;;;;2.70;2.60;;;20.10;99.90;;;20.43;76.84;102635.63;5047981;28;20049;-76
2023/09/04 01:15:24;;;;;;;2.72;2.63;;;20.10;99.90;;;20.44;76.66;102637.44;5051077;28;20056;-77
2023/09/04 01:17:53;;;;;;;2.60;2.50;;;20.10;99.90;;;20.46;76.69;102635.59;5051424;28;20183;-77
2023/09/04 01:20:26;;;;;;;2.70;2.60;;;20.10;99.90;;;20.38;76.55;102610.66;5034220;28;20057;-77
2023/09/04 01:22:55;;;;;;;2.67;2.58;;;20.20;99.90;;;20.54;76.42;102637.22;5035560;28;20073;-75
2023/09/04 01:25:27;;;;;;;2.30;2.20;;;20.20;99.90;;;20.53;76.23;102632.78;5043725;28;20073;-77
2023/09/04 01:28:06;;;;;;;2.72;2.63;;;20.20;99.90;;;20.58;75.94;102632.69;5051473;28;20143;-76
2023/09/04 01:30:45;;;;;;;3.22;3.13;;;20.20;99.90;;;20.45;75.90;102620.38;5033495;28;20056;-77
2023/09/04 01:33:19;;;;;;;2.75;2.65;;;20.20;99.90;;;20.60;75.77;102634.44;5047193;28;20120;-77
2023/09/04 01:35:52;;;;;;;2.63;2.53;;;20.20;99.90;;;20.59;75.63;102624.59;5037147;28;20055;-77
2023/09/04 01:38:21;;;;;;;2.58;2.47;;;20.30;99.90;;;20.09;75.48;102534.97;5047780;28;20052;-78
2023/09/04 01:40:51;;;;;;;2.60;2.50;;;20.20;99.90;;;20.50;75.50;102608.63;5044785;28;20406;-77
2023/09/04 01:43:20;;;;;;;3.22;3.13;;;20.30;99.90;;;20.55;75.60;102622.00;5039101;28;20046;-77
2023/09/04 01:45:48;;;;;;;2.88;2.78;;;20.20;99.90;;;20.58;75.67;102613.84;5050565;28;20445;-76
2023/09/04 01:48:17;;;;;;;2.63;2.53;;;20.20;99.90;;;20.58;75.49;102621.91;5040803;28;20045;-77
2023/09/04 01:50:45;;;;;;;2.40;2.30;;;20.20;99.90;;;20.51;75.69;102617.56;5042239;28;20487;-77
2023/09/04 01:53:15;;;;;;;2.90;2.80;;;20.20;99.90;;;20.48;75.95;102612.22;5049014;28;20049;-77
2023/09/04 01:55:43;;;;;;;2.90;2.80;;;20.20;99.90;;;20.48;76.05;102620.31;5038175;28;20154;-77
2023/09/04 01:58:11;;;;;;;2.40;2.30;;;20.20;99.90;;;20.49;76.06;102612.22;5047656;28;20574;-77
2023/09/04 02:00:40;;;;;;;3.40;3.30;;;20.10;99.90;;;20.49;76.08;102609.53;5044439;28;20045;-76
2023/09/04 02:03:08;;;;;;;2.65;2.55;;;20.10;99.90;;;20.46;76.23;102612.25;5038238;28;20373;-77
2023/09/04 02:05:39;;;;;;;2.70;2.60;;;20.10;99.90;;;20.44;76.43;102618.63;5050835;28;20046;-77
2023/09/04 02:08:08;;;;;;;2.50;2.40;;;20.10;99.90;;;20.39;76.66;102618.69;5040169;28;20041;-77
2023/09/04 02:10:39;;;;;;;2.97;2.88;;;20.00;99.90;;;20.39;76.72;102621.38;5041854;28;20115;-77
2023/09/04 02:13:07;;;;;;;2.67;2.58;;;20.10;99.90;;;20.30;76.85;102594.66;5050030;28;20048;-77
2023/09/04 02:15:38;;;;;;;2.60;2.50;;;20.00;99.90;;;20.40;76.75;102614.19;5050264;28;20050;-77
2023/09/04 02:18:07;;;;;;;3.20;3.10;;;20.10;99.90;;;20.41;76.87;102613.25;5034421;28;20099;-77
2023/09/04 02:20:35;;;;;;;3.03;2.92;;;20.00;99.90;;;20.36;77.03;102618.72;5058107;28;20486;-77
2023/09/04 02:23:04;;;;;;;2.75;2.65;;;20.00;99.90;;;20.29;77.17;102608.09;5034839;28;20041;-77
2023/09/04 02:25:33;;;;;;;2.97;2.88;;;20.00;99.90;;;20.30;77.26;102601.81;5049351;28;20050;-76
2023/09/04 02:28:03;;;;;;;2.75;2.65;;;20.00;99.90;;;19.65;77.29;102488.22;5043481;28;20049;-77
2023/09/04 02:30:31;;;;;;;9.57;7.15;;;20.00;99.90;;;20.30;77.53;102596.44;5040377;28;20053;-78
2023/09/04 02:33:00;;;;;;;2.78;2.67;;;20.00;99.90;;;20.33;77.54;102585.63;5034181;28;20045;-77
2023/09/04 02:35:28;;;;;;;2.85;2.75;;;19.90;99.90;;;20.32;77.60;102598.19;5048397;28;20053;-77
2023/09/04 02:37:57;;;;;;;2.88;2.78;;;20.00;99.90;;;20.25;77.61;102590.22;5043500;28;20099;-77
2023/09/04 02:40:25;;;;;;;2.90;2.80;;;20.00;99.90;;;20.24;77.77;102586.69;5040139;28;20128;-77
2023/09/04 02:42:54;;;;;;;2.50;2.40;;;19.90;99.90;;;20.22;77.86;102587.59;5050243;28;20039;-77
2023/09/04 02:45:24;;;;;;;3.80;3.60;;;19.90;99.90;;;20.09;77.79;102586.88;5049129;28;20084;-77
2023/09/04 02:47:56;;;;;;;3.45;3.30;;;19.80;99.90;;;20.08;78.02;102589.59;5044576;28;20124;-77
2023/09/04 02:50:27;;;;;;;2.60;2.50;;;19.80;99.90;;;20.04;78.01;102585.19;5037206;28;20148;-77
2023/09/04 02:52:56;;;;;;;3.00;2.90;;;19.70;99.90;;;20.05;78.05;102577.13;5035715;28;20425;-77
2023/09/04 02:55:24;;;;;;;2.65;2.55;;;19.70;99.90;;;20.06;77.86;102572.59;5046448;28;20049;-76
2023/09/04 02:57:53;;;;;;;2.65;2.55;;;19.70;99.90;;;19.95;78.18;102566.53;5045216;28;20091;-77
2023/09/04 03:00:22;;;;;;;2.80;2.70;;;19.70;99.90;;;19.88;78.40;102565.72;5036475;28;20053;-77
2023/09/04 03:02:51;;;;;;;3.05;2.95;;;19.60;99.90;;;19.85;78.61;102576.53;5033649;28;20475;-77
2023/09/04 03:05:19;;;;;;;3.13;3.03;;;19.50;99.90;;;19.86;78.61;102580.13;5033423;28;20140;-77
2023/09/04 03:07:48;;;;;;;2.63;2.53;;;19.50;99.90;;;19.81;78.84;102569.44;5033574;28;20045;-77
2023/09/04 03:10:17;;;;;;;2.85;2.75;;;19.50;99.90;;;19.79;78.91;102566.78;5032117;28;20503;-77
2023/09/04 03:12:45;;;;;;;2.67;2.58;;;19.50;99.90;;;19.82;79.00;102563.16;5032250;28;20483;-77
2023/09/04 03:15:14;;;;;;;2.92;2.83;;;19.50;99.90;;;19.71;79.12;102567.78;5032686;28;20124;-78
2023/09/04 03:17:44;;;;;;;3.10;3.00;;;19.40;99.90;;;19.66;79.04;102561.59;5032614;28;20111;-77
2023/09/04 03:20:19;;;;;;;2.72;2.63;;;19.40;99.90;;;19.43;79.57;102561.06;5044974;28;20052;-77
2023/09/04 03:22:50;;;;;;;2.60;2.50;;;19.20;99.90;;;19.27;80.35;102549.59;5031995;28;20049;-77
2023/09/04 03:25:18;;;;;;;2.70;2.60;;;19.10;99.90;;;19.41;80.66;102555.72;5032973;28;20099;-77
2023/09/04 03:27:47;;;;;;;2.63;2.53;;;19.10;99.90;;;19.50;80.73;102562.72;5031751;28;20041;-77
2023/09/04 03:30:16;;;;;;;2.92;2.83;;;19.20;99.90;;;19.50;80.57;102560.03;5031363;28;20057;-77
2023/09/04 03:32:49;;;;;;;2.65;2.55;;;19.20;99.90;;;19.49;80.40;102553.78;5030808;28;20144;-77
2023/09/04 03:35:18;;;;;;;2.50;2.40;;;19.20;99.90;;;19.55;80.36;102551.00;5032423;28;20045;-76
2023/09/04 03:37:46;;;;;;;2.65;2.55;;;19.20;99.90;;;19.53;80.14;102550.16;5043577;28;20038;-77
2023/09/04 03:40:19;;;;;;;2.65;2.55;;;19.20;99.90;;;19.54;80.34;102549.25;5047901;28;20049;-77
2023/09/04 03:42:47;;;;;;;2.70;2.60;;;19.20;99.90;;;19.56;80.29;102568.00;5040907;28;20037;-77
2023/09/04 03:45:16;;;;;;;2.70;2.60;;;19.30;99.90;;;19.57;79.97;102543.81;5040772;28;20491;-77
2023/09/04 03:47:47;;;;;;;2.65;2.55;;;19.30;99.90;;;19.56;79.93;102547.44;5049150;28;20048;-77
2023/09/04 03:50:17;;;;;;;2.88;2.78;;;19.30;99.90;;;19.55;79.99;102545.63;5048162;28;20046;-77
2023/09/04 03:52:47;;;;;;;3.08;2.97;;;19.30;99.90;;;19.55;79.90;102545.63;5042101;28;20045;-77
2023/09/04 03:55:15;;;;;;;2.88;2.78;;;19.20;99.90;;;19.49;80.05;102539.50;5039216;28;20038;-77
2023/09/04 03:57:46;;;;;;;3.00;2.90;;;19.20;99.90;;;19.48;79.99;102535.91;5048927;28;20104;-78
2023/09/04 04:00:16;;;;;;;2.60;2.50;;;19.20;99.90;;;19.50;79.75;102539.47;5048063;28;20140;-76
2023/09/04 04:02:51;;;;;;;2.83;2.72;;;19.20;99.90;;;19.50;79.97;102539.47;5051123;28;20049;-77
2023/09/04 04:05:21;;;;;;;2.97;2.88;;;19.20;99.90;;;19.50;79.43;102544.84;5037740;28;20471;-77
2023/09/04 04:07:49;;;;;;;2.72;2.63;;;19.20;99.90;;;19.47;79.79;102547.53;5048788;28;20082;-77
2023/09/04 04:10:21;;;;;;;2.72;2.63;;;19.10;99.90;;;19.41;80.06;102546.75;5039147;28;20072;-77
2023/09/04 04:12:53;;;;;;;2.80;2.70;;;19.10;99.90;;;19.36;80.39;102548.59;5040857;28;20049;-77
2023/09/04 04:15:22;;;;;;;2.95;2.85;;;19.00;99.90;;;19.37;80.28;102548.59;5047891;28;20179;-76
2023/09/04 04:17:51;;;;;;;3.17;3.08;;;19.00;99.90;;;19.34;80.54;102547.72;5031527;28;20054;-77
2023/09/04 04:20:20;;;;;;;2.42;2.33;;;19.00;99.90;;;19.29;80.60;102561.19;5041474;28;20045;-77
2023/09/04 04:22:49;;;;;;;2.95;2.85;;;18.90;99.90;;;19.25;80.67;102566.63;5038671;28;20046;-77
2023/09/04 04:25:17;;;;;;;2.80;2.70;;;18.90;99.90;;;19.15;80.67;102544.38;5048769;28;20437;-77
2023/09/04 04:27:45;;;;;;;3.08;2.97;;;18.80;99.90;;;19.18;80.89;102555.06;5037338;28;20471;-77
2023/09/04 04:30:14;;;;;;;2.80;2.70;;;18.80;99.90;;;19.19;81.09;102555.97;5042082;28;20045;-77
2023/09/04 04:32:43;;;;;;;2.63;2.53;;;18.80;99.90;;;19.15;80.81;102552.44;5044016;28;20483;-76
2023/09/04 04:35:14;;;;;;;2.50;2.40;;;18.80;99.90;;;19.19;80.84;102553.28;5035514;28;20037;-77
2023/09/04 04:37:42;;;;;;;;;;;18.80;99.90;;;19.25;80.67;102558.56;5045246;28;20041;-77
2023/09/04 04:40:11;;;;;;;2.70;2.60;;;18.90;99.90;;;19.22;80.74;102553.25;5042094;28;19920;-78
2023/09/04 04:42:41;;;;;;;;;;;18.90;99.90;;;19.20;80.76;102547.88;5036849;28;20045;-77
2023/09/04 04:45:11;;;;;;;2.53;2.43;;;18.90;99.90;;;19.19;80.89;102555.97;5036039;28;19968;-78
2023/09/04 04:47:40;;;;;;;2.60;2.50;;;18.80;99.90;;;19.26;80.85;102557.69;5048488;28;20304;-76
2023/09/04 04:50:10;;;;;;;2.80;2.70;;;18.90;99.90;;;19.25;80.63;102567.50;5051640;28;20052;-78
2023/09/04 04:52:40;;;;;;;2.97;2.88;;;18.90;99.90;;;19.28;80.61;102554.03;5050935;28;20071;-78
2023/09/04 04:55:11;;;;;;;2.80;2.70;;;18.90;99.90;;;19.14;80.25;102545.31;5038685;28;20439;-77
2023/09/04 04:57:40;;;;;;;2.63;2.53;;;18.90;99.90;;;18.84;80.82;102535.84;5047681;28;20045;-77
2023/09/04 05:00:11;;;;;;;3.13;3.03;;;18.60;99.90;;;18.77;81.51;102542.19;5051319;28;20077;-77
2023/09/04 05:02:40;;;;;;;2.60;2.50;;;18.50;99.90;;;18.77;81.82;102536.81;5054344;28;20055;-77
2023/09/04 05:05:10;;;;;;;2.90;2.80;;;18.50;99.90;;;18.81;81.95;102532.31;5051308;28;20148;-77
2023/09/04 05:07:42;;;;;;;2.83;2.72;;;18.50;99.90;;;18.60;82.35;102538.78;5054178;28;20053;-77
2023/09/04 05:10:13;;;;;;;3.22;3.13;;;18.40;99.90;;;18.71;82.94;102531.53;5040844;28;20076;-77
2023/09/04 05:12:43;;;;;;;3.03;2.93;;;18.40;99.90;;;18.88;82.84;102532.22;5050064;28;20049;-77
2023/09/04 05:15:12;;;;;;;2.70;2.60;;;18.50;99.90;;;18.94;82.35;102539.28;5041755;28;20294;-78
2023/09/04 05:17:41;;;;;;;3.10;3.00;;;18.60;99.90;;;18.95;82.28;102534.81;5043598;28;20080;-77
2023/09/04 05:20:11;;;;;;;2.78;2.67;;;18.70;99.90;;;19.05;81.95;102531.13;5050852;28;20053;-77
2023/09/04 05:22:41;;;;;;;3.00;2.90;;;18.80;99.90;;;19.03;81.54;102531.13;5051712;28;20382;-77
2023/09/04 05:25:11;;;;;;;2.70;2.60;;;18.80;99.90;;;19.10;81.58;102538.22;5042490;28;20287;-77
2023/09/04 05:27:39;;;;;;;2.50;2.40;;;18.80;99.90;;;19.23;81.23;102531.75;5042628;28;20049;-77
2023/09/04 05:30:09;;;;;;;3.90;3.70;;;18.90;99.90;;;19.12;80.78;102530.13;5050870;28;20458;-77
2023/09/04 05:32:37;;;;;;;2.92;2.83;;;18.90;99.90;;;18.62;80.99;102423.50;5038722;28;20049;-77
2023/09/04 05:35:07;;;;;;;3.00;2.90;;;18.90;99.90;;;19.17;80.84;102545.25;5046996;28;20049;-77
2023/09/04 05:37:36;;;;;;;2.88;2.78;;;18.90;99.90;;;19.32;80.69;102538.78;5045213;28;20560;-78
2023/09/04 05:40:08;;;;;;;3.67;3.35;;;19.00;99.90;;;19.18;80.17;102511.28;5038094;28;20134;-77
2023/09/04 05:42:37;;;;;;;2.95;2.85;;;19.10;99.90;;;19.43;80.53;102535.09;5034446;28;20050;-77
2023/09/04 05:45:07;;;;;;;2.85;2.75;;;19.10;99.90;;;19.46;80.32;102523.41;5034926;28;20514;-77
2023/09/04 05:47:36;;;;;;;2.78;2.67;;;19.20;99.90;;;19.53;79.89;102535.84;5043456;28;20061;-76
2023/09/04 05:50:05;;;;;;;2.80;2.70;;;19.30;99.90;;;19.57;79.67;102538.44;5035223;28;20053;-76
2023/09/04 05:52:33;;;;;;;2.95;2.85;;;19.30;99.90;;;19.61;79.65;102536.59;5035004;28;20546;-77
2023/09/04 05:55:02;;;;;;;3.03;2.92;;;19.30;99.90;;;19.63;79.38;102538.38;5034398;28;20053;-77
2023/09/04 05:57:32;;;;;;;2.90;2.80;;;19.30;99.90;;;19.66;79.24;102529.38;5033209;28;20061;-76
2023/09/04 06:00:01;;;;;;;2.83;2.72;;;19.40;99.90;;;19.82;79.07;102530.03;5034598;28;20041;-77
2023/09/04 06:02:29;;;;;;;2.80;2.70;;;19.50;99.90;;;19.96;78.39;102526.19;5034631;28;20049;-77
2023/09/04 06:04:57;;;;;;;3.42;3.22;;;19.60;99.90;;;20.00;77.83;102527.91;5033355;28;20498;-76
2023/09/04 06:07:26;;;;;;;2.78;2.67;;;19.70;99.90;;;20.26;77.58;102525.72;5034662;28;20486;-76
2023/09/04 06:09:54;;;;;;;2.90;2.80;;;19.90;99.90;;;20.15;76.72;102529.47;5034416;28;20116;-77
2023/09/04 06:12:23;;;;;;;2.78;2.67;;;19.90;99.90;;;20.14;77.28;102525.00;5034496;28;20140;-76
2023/09/04 06:14:53;;;;;;;2.95;2.85;;;19.80;99.90;;;19.97;77.01;102525.31;5034325;28;20052;-76
2023/09/04 06:17:21;;;;;;;3.67;3.47;;;19.70;99.90;;;19.61;78.51;102525.88;5049406;28;20053;-77
2023/09/04 06:19:49;;;;;;;3.03;2.92;;;19.30;99.90;;;19.50;79.14;102522.47;5037798;28;20291;-76
2023/09/04 06:22:18;;;;;;;3.33;3.17;;;19.30;99.90;;;19.34;80.06;102512.84;5047084;28;20473;-76
2023/09/04 06:24:46;;;;;;;3.30;3.20;;;19.10;99.90;;;19.04;81.53;102521.28;5045540;28;20084;-76
2023/09/04 06:27:14;;;;;;;8.75;4.00;;;18.70;99.90;;;18.93;82.08;102522.31;5038832;28;20560;-76
2023/09/04 06:29:43;;;;;;;3.55;3.35;;;18.60;99.90;;;19.10;82.92;102524.78;5050854;28;20391;-76
2023/09/04 06:32:14;;;;;;;2.90;2.80;;;18.70;99.90;;;19.01;83.56;102526.72;5041004;28;20056;-77
2023/09/04 06:34:43;;;;;;;3.30;3.20;;;18.60;99.90;;;18.76;84.10;102521.63;5041180;28;20057;-77
2023/09/04 06:37:12;;;;;;;3.30;3.13;;;18.40;99.90;;;19.05;83.20;102521.25;5049236;28;20120;-81
2023/09/04 06:39:41;;;;;;;2.97;2.88;;;18.60;99.90;;;19.26;83.45;102512.06;5032908;28;20517;-76
2023/09/04 06:42:10;;;;;;;3.58;3.38;;;18.80;99.90;;;19.27;82.54;102519.19;5044081;28;20050;-77
2023/09/04 06:44:39;;;;;;;3.28;3.17;;;18.90;99.90;;;19.63;81.92;102516.88;5045587;28;20136;-77
2023/09/04 06:47:09;;;;;;;3.28;3.17;;;19.20;99.90;;;19.74;80.60;102522.97;5036912;28;20049;-70
2023/09/04 06:49:38;;;;;;;2.88;2.78;;;19.40;99.90;;;19.80;80.41;102525.56;5048790;28;20041;-67
2023/09/04 06:52:07;;;;;;;2.87;2.77;;;19.40;99.90;;;19.81;80.28;102523.78;5042912;28;20061;-66
2023/09/04 06:54:37;;;;;;;5.15;4.80;;;19.40;99.90;;;19.46;81.02;102532.34;5040038;28;20495;-66
2023/09/04 06:57:06;;;;;;;3.15;3.05;;;19.20;99.90;;;19.60;80.78;102524.09;5048913;28;20125;-68
2023/09/04 06:59:34;;;;;;;3.10;3.00;;;19.20;99.90;;;19.78;80.53;102519.31;5038304;28;20079;-70
2023/09/04 07:02:03;;;;;;;3.40;3.10;;;19.30;99.90;;;19.67;80.54;102512.34;5043293;28;20041;-67
2023/09/04 07:04:31;;;;;;;2.92;2.83;;;19.30;99.90;;;19.66;80.63;102521.34;5047235;28;20052;-71
2023/09/04 07:07:01;;;;;;;4.63;4.07;;;19.30;99.90;;;19.61;81.42;102518.69;5036208;28;20064;-69
2023/09/04 07:09:29;;;;;;;3.37;3.17;;;19.30;99.90;;;19.73;81.01;102523.00;5047277;28;20068;-70
2023/09/04 07:11:58;;;;;;;2.70;2.60;;;19.40;99.90;;;19.75;82.04;102530.13;5043236;28;20041;-68
2023/09/04 07:14:26;;;;;;;3.13;3.03;;;19.40;99.90;;;19.81;81.38;102521.09;5038808;28;20060;-68
2023/09/04 07:16:55;;;;;;;4.97;4.57;;;19.50;99.90;;;20.04;80.90;102529.66;5049394;28;20044;-69
2023/09/04 07:19:36;;;;;;;2.90;2.80;;;19.60;99.90;;;19.97;80.55;102511.88;5041188;28;20087;-69
2023/09/04 07:22:06;;;;;;;3.75;3.50;;;19.70;99.90;;;19.18;81.62;102395.91;5040623;28;20068;-67
2023/09/04 07:24:35;;;;;;;3.05;2.95;;;19.50;99.90;;;19.94;82.10;102506.53;5049470;28;20056;-67
2023/09/04 07:27:04;;;;;;;3.42;3.33;;;19.50;99.90;;;20.16;80.78;102515.13;5038165;28;20045;-67
2023/09/04 07:29:32;;;;;;;3.80;3.60;;;19.80;99.90;;;20.12;80.05;102510.69;5044157;28;20042;-67
2023/09/04 07:32:01;;;;;;;2.80;2.70;;;19.80;99.90;;;20.29;80.19;102514.91;5045721;28;20079;-70
2023/09/04 07:34:30;;;;;;;2.95;2.85;;;19.90;99.90;;;20.50;79.33;102524.38;5036118;28;20112;-68
2023/09/04 07:37:01;;;;;;;3.20;3.10;;;20.10;99.90;;;19.95;78.77;102403.56;5046386;28;20049;-67
2023/09/04 07:39:30;;;;;;;3.10;3.00;;;20.30;99.90;;;20.73;78.98;102518.56;5048314;28;20061;-69
2023/09/04 07:42:00;;;;;;;4.20;3.80;;;20.40;99.90;;;20.38;79.35;102527.31;5046991;28;20110;-68
2023/09/04 07:44:28;;;;;;;3.45;3.25;;;20.10;99.90;;;20.55;79.84;102523.38;5036364;28;20338;-74
2023/09/04 07:46:56;;;;;;;3.90;3.70;;;20.20;99.90;;;20.54;79.50;102532.34;5046752;28;20057;-74
2023/09/04 07:49:25;;;;;;;6.68;5.40;;;20.20;99.90;;;20.84;78.61;102514.72;5042861;28;20041;-72
2023/09/04 07:51:53;;;;;;;4.63;4.22;;;20.40;99.90;;;21.17;78.58;102527.53;5037389;28;20126;-71
2023/09/04 07:54:22;;;;;;;2.60;2.50;;;20.70;99.90;;;21.34;78.47;102536.09;5034988;28;20057;-71
2023/09/04 07:56:52;;;;;;;5.70;5.20;;;20.90;99.90;;;20.74;76.95;102533.78;5046213;28;20045;-71
2023/09/04 07:59:20;;;;;;;5.05;4.63;;;20.60;99.90;;;20.64;77.59;102531.28;5042657;28;20056;-71
2023/09/04 08:01:49;;;;;;;2.50;2.40;;;20.40;99.90;;;20.78;79.78;102535.47;5037242;28;20091;-71
2023/09/04 08:04:17;;;;;;;2.83;2.72;;;20.40;99.90;;;20.90;78.26;102538.84;5048517;28;20099;-71
2023/09/04 08:06:46;;;;;;;2.75;2.65;;;20.50;99.90;;;21.16;76.60;102549.97;5038823;28;20045;-71
2023/09/04 08:09:14;;;;;;;2.88;2.78;;;20.80;99.90;;;21.15;76.91;102552.69;5041012;28;20080;-71
2023/09/04 08:11:43;;;;;;;2.78;2.67;;;20.80;99.90;;;20.91;75.72;102545.06;5047087;28;20559;-71
2023/09/04 08:14:12;;;;;;;5.82;4.38;;;20.60;99.90;;;21.11;76.68;102546.50;5034486;28;20049;-71
2023/09/04 08:16:41;;;;;;;4.10;3.80;;;20.70;99.90;;;21.23;77.09;102545.34;5044786;28;20077;-71
2023/09/04 08:19:09;;;;;;;4.13;2.97;;;20.80;99.90;;;21.24;76.41;102533.63;5047493;28;20536;-71
2023/09/04 08:21:38;;;;;;;3.33;3.17;;;20.90;99.90;;;21.40;79.00;102543.16;5040600;28;20103;-71
2023/09/04 08:24:07;;;;;;;4.82;4.38;;;20.90;99.90;;;21.12;77.03;102537.47;5052805;28;20045;-71
2023/09/04 08:26:36;;;;;;;3.35;3.25;;;20.90;99.90;;;20.85;80.23;102523.69;5051910;28;20053;-71
2023/09/04 08:29:04;;;;;;;2.97;2.88;;;20.60;99.90;;;21.19;78.68;102532.88;5048458;28;20100;-71
2023/09/04 08:31:34;;;;;;;6.63;5.57;;;20.80;99.90;;;21.32;77.00;102537.06;5040479;28;20099;-71
2023/09/04 08:34:03;;;;;;;6.55;5.15;;;21.00;99.90;;;21.12;79.80;102531.19;5036621;28;20049;-71
2023/09/04 08:36:32;;;;;;;5.00;4.50;;;20.80;99.90;;;21.00;78.02;102543.06;5036159;28;20052;-71
2023/09/04 08:39:00;;;;;;;5.97;5.50;;;20.60;99.90;;;20.64;79.94;102535.75;5036566;28;20048;-71
2023/09/04 08:41:29;;;;;;;5.78;4.65;;;20.30;99.90;;;20.87;80.94;102527.22;5036044;28;20044;-71
2023/09/04 08:43:59;;;;;;;3.45;3.30;;;20.40;99.90;;;20.91;81.16;102520.84;5035745;28;20061;-71
2023/09/04 08:46:29;;;;;;;6.38;5.78;;;20.40;99.90;;;20.72;82.20;102506.91;5034712;28;20144;-71
2023/09/04 08:49:02;;;;;;;3.60;3.40;;;20.40;99.90;;;20.78;81.29;102519.34;5044913;28;20073;-71
2023/09/04 08:51:32;;;;;;;5.75;5.18;;;20.30;99.90;;;20.86;81.00;102520.06;5036111;28;20041;-71
2023/09/04 08:54:00;;;;;;;6.25;5.65;;;20.40;99.90;;;20.71;81.00;102523.97;5035944;28;20042;-71
2023/09/04 08:56:31;;;;;;;7.25;6.53;;;20.40;99.90;;;20.56;81.49;102525.16;5035929;28;20057;-71
2023/09/04 08:58:59;;;;;;;5.68;5.20;;;20.20;99.90;;;20.80;82.34;102531.84;5035806;28;20045;-71
2023/09/04 09:01:32;;;;;;;4.18;3.90;;;20.40;99.90;;;20.90;82.65;102513.72;5034633;28;20505;-71
2023/09/04 09:04:03;;;;;;;3.60;3.35;;;20.40;99.90;;;21.25;82.29;102508.50;5036006;28;20045;-71
2023/09/04 09:06:33;;;;;;;3.30;3.20;;;20.80;99.90;;;21.41;81.06;102526.06;5035190;28;20092;-71
2023/09/04 09:09:03;;;;;;;3.53;3.33;;;21.00;99.90;;;21.68;79.68;102520.03;5034936;28;20050;-71
2023/09/04 09:11:33;;;;;;;5.10;4.70;;;21.20;99.90;;;21.65;80.84;102519.22;5034958;28;20041;-71
2023/09/04 09:14:01;;;;;;;4.97;4.57;;;21.20;99.90;;;21.81;80.07;102508.09;5034945;28;20045;-71
2023/09/04 09:16:30;;;;;;;3.15;3.05;;;21.40;99.90;;;22.15;78.77;102509.00;5048137;28;20053;-71
2023/09/04 09:18:59;;;;;;;3.00;2.90;;;21.70;99.90;;;21.97;78.25;102509.47;5038830;28;20072;-71
2023/09/04 09:21:32;;;;;;;6.88;6.03;;;21.70;99.90;;;21.59;79.08;102509.50;5050600;28;20049;-71
2023/09/04 09:24:14;;;;;;;5.70;4.65;;;21.30;99.90;;;21.58;80.48;102505.03;5045515;28;20482;-71
2023/09/04 09:26:45;;;;;;;3.80;3.42;;;21.20;99.90;;;21.64;80.52;102502.19;5038991;28;20479;-71
2023/09/04 09:29:14;;;;;;;10.07;4.88;;;21.20;99.90;;;22.02;80.21;102509.38;5038751;28;20123;-71
2023/09/04 09:31:45;;;;;;;7.88;5.63;;;21.50;99.90;;;21.45;80.67;102484.69;5046606;28;20049;-71
2023/09/04 09:34:14;;;;;;;3.00;2.85;;;21.30;99.90;;;21.83;80.84;102498.16;5048136;28;20040;-71
2023/09/04 09:36:45;;;;;;;4.15;3.92;;;21.30;99.90;;;21.99;80.73;102504.06;5038902;28;20046;-70
2023/09/04 09:39:13;;;;;;;4.72;4.43;;;21.50;99.90;;;21.95;80.33;102505.06;5049647;28;20049;-71
2023/09/04 09:41:41;;;;;;;5.07;4.75;;;21.50;99.90;;;21.95;80.40;102503.22;5050628;28;20049;-70
2023/09/04 09:44:10;;;;;;;3.22;3.13;;;21.50;99.90;;;22.41;80.83;102503.78;5048315;28;20088;-70
2023/09/04 09:46:38;;;;;;;4.07;3.78;;;21.90;99.90;;;22.77;77.96;102511.81;5038471;28;20609;-71
2023/09/04 09:49:10;;;;;;;3.38;3.17;;;22.30;99.90;;;22.80;77.23;102509.06;5049404;28;20056;-71
2023/09/04 09:51:38;;;;;;;5.75;5.28;;;22.40;99.90;;;22.74;78.16;102498.44;5044478;28;20490;-71
2023/09/04 09:54:10;;;;;;;4.53;4.22;;;22.40;99.90;;;23.14;76.56;102499.03;5039711;28;20510;-71
2023/09/04 09:56:41;;;;;;;2.63;2.53;;;22.70;99.90;;;23.03;77.63;102493.06;5050639;28;20490;-71
2023/09/04 09:59:09;;;;;;;4.90;3.58;;;22.60;99.90;;;23.30;76.63;102487.72;5041951;28;20071;-71
2023/09/04 10:01:38;;;;;;;3.03;2.92;;;22.90;99.90;;;23.69;74.98;102488.25;5043115;28;20038;-71
2023/09/04 10:04:08;;;;;;;6.07;5.10;;;23.20;99.90;;;23.32;76.06;102478.69;5048858;28;20068;-71
2023/09/04 10:06:39;;;;;;;3.20;3.00;;;23.10;99.90;;;23.44;75.39;102464.81;5038210;28;20069;-71
2023/09/04 10:09:13;;;;;;;4.55;4.00;;;23.20;99.90;;;23.25;75.32;102464.44;5045372;28;20067;-71
2023/09/04 10:11:45;;;;;;;7.78;5.63;;;22.90;99.90;;;23.04;74.74;102467.81;5047599;28;20037;-71
2023/09/04 10:14:17;;;;;;;11.35;4.57;;;22.70;99.90;;;23.20;74.79;102466.44;5037974;28;20037;-71
2023/09/04 10:16:54;;;;;;;24.80;5.72;;;22.70;99.90;;;23.27;74.98;102458.09;5048005;28;20037;-71
2023/09/04 10:19:25;;;;;;;4.47;4.10;;;22.80;99.90;;;23.35;74.12;102462.38;5045918;28;20115;-71
2023/09/04 10:22:00;;;;;;;3.42;3.22;;;22.90;99.90;;;23.30;75.05;102452.59;5038313;28;20491;-71